Time;durP1;ratioP1;P1;durP2;ratioP2;P2;SDS_P1;SDS_P2;PMS_P1;PMS_P2;Temp;Humidity;BMP_temperature;BMP_pressure;BME280_temperature;BME280_humidity;BME280_pressure;Samples;Min_cycle;Max_cycle;Signal;HPM_P1;HPM_P2
2023/07/01 00:02:44;;;;;;;4.10;3.70;;;23.90;90.30;;;;;;6253887;28;20266;-63
2023/07/01 00:05:49;;;;;;;4.83;4.40;;;23.80;90.40;;;;;;6253374;28;20304;-63
2023/07/01 00:08:53;;;;;;;5.27;4.77;;;23.60;90.60;;;;;;6253959;28;20234;-63
2023/07/01 00:11:56;;;;;;;5.20;4.67;;;23.70;90.50;;;;;;6253520;28;20228;-63
2023/07/01 00:14:59;;;;;;;4.73;4.30;;;23.60;90.70;;;;;;6255291;28;20234;-63
2023/07/01 00:18:02;;;;;;;4.90;4.40;;;23.60;90.80;;;;;;6252155;28;20321;-63
2023/07/01 00:21:07;;;;;;;4.63;4.23;;;23.60;90.80;;;;;;6252840;28;20232;-62
2023/07/01 00:24:10;;;;;;;4.50;4.10;;;23.60;90.80;;;;;;6253139;28;20693;-62
2023/07/01 00:27:13;;;;;;;4.70;4.30;;;23.60;91.00;;;;;;6252957;28;20235;-62
2023/07/01 00:30:17;;;;;;;4.73;4.33;;;23.60;91.10;;;;;;6253053;28;20238;-63
2023/07/01 00:33:20;;;;;;;4.83;4.43;;;23.50;91.10;;;;;;6252751;28;20636;-62
2023/07/01 00:36:25;;;;;;;5.77;3.93;;;23.50;91.10;;;;;;6252985;28;20239;-62
2023/07/01 00:39:28;;;;;;;4.23;3.83;;;23.50;91.20;;;;;;6253812;28;20236;-62
2023/07/01 00:42:31;;;;;;;5.33;4.83;;;23.60;91.10;;;;;;6253211;28;20243;-62
2023/07/01 00:45:34;;;;;;;5.33;4.83;;;23.70;91.10;;;;;;6254472;28;20599;-62
2023/07/01 00:48:41;;;;;;;4.80;4.40;;;23.60;91.20;;;;;;6243555;28;20236;-63
2023/07/01 00:51:45;;;;;;;4.57;4.00;;;23.60;91.30;;;;;;6253876;28;20224;-63
2023/07/01 00:54:49;;;;;;;5.13;4.67;;;23.60;91.20;;;;;;6252364;28;20228;-63
2023/07/01 00:57:52;;;;;;;4.13;3.73;;;23.60;91.30;;;;;;6252518;28;20672;-63
2023/07/01 01:00:57;;;;;;;4.93;4.43;;;23.60;91.40;;;;;;6252496;28;20689;-63
2023/07/01 01:04:09;;;;;;;4.53;4.13;;;23.70;91.20;;;;;;6252444;28;20691;-62
2023/07/01 01:07:23;;;;;;;4.20;3.83;;;23.60;91.40;;;;;;6252269;28;20296;-63
2023/07/01 01:10:28;;;;;;;5.57;5.07;;;23.70;91.30;;;;;;6252169;28;20232;-62
2023/07/01 01:13:32;;;;;;;4.13;3.83;;;23.70;91.30;;;;;;6252317;28;20310;-63
2023/07/01 01:16:35;;;;;;;4.67;4.17;;;23.70;91.30;;;;;;6252344;28;20270;-62
2023/07/01 01:19:41;;;;;;;4.90;4.50;;;23.70;91.40;;;;;;6252519;28;20234;-62
2023/07/01 01:22:49;;;;;;;4.50;4.10;;;23.70;91.50;;;;;;6252530;28;20250;-62
2023/07/01 01:26:06;;;;;;;4.97;4.47;;;23.60;91.60;;;;;;6252553;28;20366;-62
2023/07/01 01:29:11;;;;;;;5.10;4.70;;;23.60;91.70;;;;;;6252082;28;20228;-62
2023/07/01 01:32:14;;;;;;;5.17;4.73;;;23.60;91.80;;;;;;6251754;28;20224;-62
2023/07/01 01:35:18;;;;;;;5.27;4.87;;;23.60;91.90;;;;;;6251198;28;20294;-62
2023/07/01 01:38:26;;;;;;;4.93;4.53;;;23.60;92.10;;;;;;6250985;28;20228;-63
2023/07/01 01:41:40;;;;;;;5.30;4.80;;;23.50;92.10;;;;;;6251383;28;20476;-62
2023/07/01 01:44:47;;;;;;;4.77;4.37;;;23.60;92.10;;;;;;6251231;28;20244;-62
2023/07/01 01:47:51;;;;;;;4.90;4.40;;;23.60;92.10;;;;;;6251415;28;20319;-62
2023/07/01 01:50:57;;;;;;;5.13;4.57;;;23.50;92.20;;;;;;6246858;28;20239;-62
2023/07/01 01:54:01;;;;;;;5.07;4.57;;;23.40;92.30;;;;;;6251057;28;20232;-62
2023/07/01 01:57:05;;;;;;;4.37;3.97;;;23.40;92.50;;;;;;6251377;28;20234;-62
2023/07/01 02:00:13;;;;;;;4.83;4.43;;;23.40;92.60;;;;;;6251445;28;20303;-62
2023/07/01 02:03:16;;;;;;;5.23;4.70;;;23.40;92.60;;;;;;6250895;28;20512;-62
2023/07/01 02:06:19;;;;;;;4.83;4.43;;;23.40;92.70;;;;;;6251010;28;20256;-62
2023/07/01 02:09:23;;;;;;;5.23;4.80;;;23.40;92.80;;;;;;6251130;28;20232;-61
2023/07/01 02:12:27;;;;;;;5.60;4.50;;;23.40;92.90;;;;;;6251128;28;20305;-61
2023/07/01 02:15:31;;;;;;;5.97;5.43;;;23.40;93.00;;;;;;6250886;28;20552;-62
2023/07/01 02:18:35;;;;;;;5.90;5.43;;;23.30;92.90;;;;;;6250741;28;20236;-62
2023/07/01 02:21:38;;;;;;;5.03;4.63;;;23.30;93.00;;;;;;6250419;28;20550;-62
2023/07/01 02:24:41;;;;;;;5.27;4.77;;;23.30;93.00;;;;;;6250547;28;20228;-62
2023/07/01 02:27:45;;;;;;;5.50;5.10;;;23.20;93.10;;;;;;6250633;28;20754;-61
2023/07/01 02:30:49;;;;;;;5.57;5.07;;;23.20;93.30;;;;;;6251659;28;20573;-61
2023/07/01 02:33:56;;;;;;;5.23;4.77;;;23.20;93.30;;;;;;6253759;28;20240;-61
2023/07/01 02:36:59;;;;;;;6.17;5.53;;;23.10;93.50;;;;;;6250573;28;20255;-61
2023/07/01 02:40:04;;;;;;;6.17;5.67;;;23.10;93.70;;;;;;6249932;28;20331;-61
2023/07/01 02:43:07;;;;;;;5.40;4.80;;;23.00;93.70;;;;;;6249915;28;20542;-61
2023/07/01 02:46:12;;;;;;;6.97;6.27;;;23.00;93.90;;;;;;6250227;28;20318;-62
2023/07/01 02:49:15;;;;;;;5.33;4.93;;;22.90;94.00;;;;;;6250338;28;20298;-62
2023/07/01 02:52:18;;;;;;;6.00;5.50;;;22.80;94.10;;;;;;6250156;28;20593;-62
2023/07/01 02:55:22;;;;;;;5.60;5.20;;;22.80;94.30;;;;;;6255427;28;20227;-62
2023/07/01 02:58:25;;;;;;;5.30;4.90;;;22.80;94.30;;;;;;6236274;28;20527;-61
2023/07/01 03:01:29;;;;;;;5.23;4.63;;;22.70;94.50;;;;;;6249909;28;20684;-61
2023/07/01 03:04:33;;;;;;;6.00;5.40;;;22.60;94.80;;;;;;6250214;28;20738;-61
2023/07/01 03:07:37;;;;;;;5.50;5.00;;;22.50;95.10;;;;;;6250253;28;20338;-61
2023/07/01 03:10:40;;;;;;;5.57;4.93;;;22.50;95.30;;;;;;6249745;28;20564;-61
2023/07/01 03:13:43;;;;;;;6.17;5.63;;;22.50;95.50;;;;;;6250066;28;20224;-61
2023/07/01 03:16:49;;;;;;;5.60;5.10;;;22.40;95.60;;;;;;6249837;28;20238;-61
2023/07/01 03:19:53;;;;;;;5.30;4.80;;;22.40;95.80;;;;;;6249987;28;20232;-61
2023/07/01 03:22:57;;;;;;;5.53;5.10;;;22.40;96.00;;;;;;6250221;28;20562;-63
2023/07/01 03:26:01;;;;;;;5.47;4.97;;;22.40;96.30;;;;;;6249533;28;20232;-63
2023/07/01 03:29:04;;;;;;;6.80;5.13;;;22.30;96.60;;;;;;6249626;28;20242;-63
2023/07/01 03:32:10;;;;;;;5.30;4.90;;;22.20;97.00;;;;;;6249667;28;20232;-63
2023/07/01 03:35:13;;;;;;;5.77;5.27;;;22.30;97.20;;;;;;6249136;28;20808;-63
2023/07/01 03:38:17;;;;;;;6.20;5.70;;;22.30;97.30;;;;;;6249736;28;20220;-63
2023/07/01 03:41:20;;;;;;;5.73;5.13;;;22.30;97.40;;;;;;6249757;28;20621;-63
2023/07/01 03:44:23;;;;;;;6.23;5.63;;;22.20;97.40;;;;;;6250084;28;20228;-63
2023/07/01 03:47:28;;;;;;;6.00;5.33;;;22.20;97.80;;;;;;6252021;28;20302;-64
2023/07/01 03:50:31;;;;;;;5.87;5.37;;;22.10;97.90;;;;;;6249095;28;20232;-64
2023/07/01 03:53:34;;;;;;;5.40;4.90;;;22.10;98.10;;;;;;6253558;28;20238;-63
2023/07/01 03:56:38;;;;;;;6.47;5.87;;;22.00;98.30;;;;;;6253705;28;20688;-64
2023/07/01 03:59:42;;;;;;;5.53;5.03;;;22.00;98.60;;;;;;6244033;28;20248;-64
2023/07/01 04:02:47;;;;;;;5.40;5.00;;;22.10;98.80;;;;;;6253763;28;20228;-64
2023/07/01 04:05:50;;;;;;;6.10;5.50;;;22.10;98.80;;;;;;6253905;28;20232;-64
2023/07/01 04:08:54;;;;;;;7.30;6.60;;;22.10;98.90;;;;;;6253197;28;20286;-64
2023/07/01 04:11:59;;;;;;;5.80;5.40;;;22.10;99.20;;;;;;6253821;28;20224;-64
2023/07/01 04:15:09;;;;;;;6.70;6.17;;;22.10;99.20;;;;;;6253654;28;20309;-64
2023/07/01 04:18:14;;;;;;;5.87;5.27;;;22.10;99.30;;;;;;6253375;28;20282;-64
2023/07/01 04:21:18;;;;;;;5.97;5.47;;;22.20;99.50;;;;;;6253399;28;20238;-64
2023/07/01 04:24:21;;;;;;;6.53;5.30;;;22.20;99.30;;;;;;6253295;28;20232;-64
2023/07/01 04:27:24;;;;;;;6.17;5.57;;;22.30;99.40;;;;;;6253047;28;20232;-64
2023/07/01 04:30:27;;;;;;;5.70;5.20;;;22.40;99.50;;;;;;6252919;28;20224;-64
2023/07/01 04:33:32;;;;;;;5.50;5.00;;;22.40;99.50;;;;;;6252897;28;20232;-64
2023/07/01 04:36:35;;;;;;;6.47;5.90;;;22.40;99.60;;;;;;6252991;28;20224;-64
2023/07/01 04:39:39;;;;;;;5.63;5.13;;;22.40;99.80;;;;;;6253068;28;20243;-63
2023/07/01 04:42:48;;;;;;;6.67;6.17;;;22.40;99.90;;;;;;6252720;28;20224;-63
2023/07/01 04:45:52;;;;;;;6.17;5.67;;;22.50;99.90;;;;;;6252634;28;20692;-63
2023/07/01 04:48:57;;;;;;;7.03;6.43;;;22.60;99.80;;;;;;6252150;28;20232;-63
2023/07/01 04:52:00;;;;;;;8.50;7.80;;;22.70;99.90;;;;;;6252778;28;20232;-63
2023/07/01 04:55:03;;;;;;;8.57;7.83;;;22.70;99.60;;;;;;6252783;28;20670;-63
2023/07/01 04:58:07;;;;;;;8.27;7.57;;;22.70;99.50;;;;;;6252545;28;20236;-64
2023/07/01 05:01:10;;;;;;;9.23;8.00;;;22.60;99.30;;;;;;6252585;28;20228;-64
2023/07/01 05:04:14;;;;;;;9.53;8.00;;;22.70;99.10;;;;;;6243507;28;20240;-64
2023/07/01 05:07:18;;;;;;;8.53;7.67;;;22.80;99.20;;;;;;6252950;28;20240;-64
2023/07/01 05:10:22;;;;;;;8.83;8.13;;;22.80;99.30;;;;;;6253753;28;20224;-64
2023/07/01 05:13:26;;;;;;;9.50;8.70;;;22.90;99.40;;;;;;6254467;28;20224;-63
2023/07/01 05:16:29;;;;;;;9.33;8.57;;;22.90;99.50;;;;;;6251745;28;20234;-63
2023/07/01 05:19:33;;;;;;;9.33;8.57;;;22.90;99.70;;;;;;6251665;28;20243;-63
2023/07/01 05:22:37;;;;;;;8.73;8.03;;;22.80;99.60;;;;;;6251940;28;20224;-63
2023/07/01 05:25:40;;;;;;;9.20;8.43;;;22.80;99.80;;;;;;6251474;28;20374;-63
2023/07/01 05:28:44;;;;;;;9.70;8.87;;;22.70;99.40;;;;;;6257073;28;20250;-64
2023/07/01 05:31:48;;;;;;;9.10;8.30;;;22.70;99.30;;;;;;6252212;28;20571;-63
2023/07/01 05:34:53;;;;;;;10.13;9.30;;;22.80;99.10;;;;;;6269838;28;20239;-63
2023/07/01 05:37:56;;;;;;;8.80;8.10;;;22.90;99.30;;;;;;6275978;28;20227;-63
2023/07/01 05:40:59;;;;;;;9.40;8.60;;;23.00;99.00;;;;;;6275824;28;20561;-63
2023/07/01 05:44:02;;;;;;;7.70;7.00;;;23.10;98.50;;;;;;6276160;28;20238;-63
2023/07/01 05:47:07;;;;;;;8.97;8.27;;;23.20;98.30;;;;;;6275962;28;20560;-63
2023/07/01 05:50:12;;;;;;;8.60;7.80;;;23.20;97.90;;;;;;6276128;28;20231;-63
2023/07/01 05:53:15;;;;;;;8.30;7.60;;;23.20;98.00;;;;;;6276253;28;20232;-63
2023/07/01 05:56:18;;;;;;;8.90;8.10;;;23.20;98.00;;;;;;6275808;28;20314;-63
2023/07/01 05:59:21;;;;;;;9.00;8.20;;;23.10;98.30;;;;;;6275800;28;20204;-63
2023/07/01 06:02:24;;;;;;;8.33;7.53;;;23.00;98.40;;;;;;6278058;28;20214;-63
2023/07/01 06:05:29;;;;;;;8.30;7.60;;;23.00;98.50;;;;;;6276327;28;20223;-63
2023/07/01 06:08:32;;;;;;;8.00;7.40;;;23.00;98.50;;;;;;6277046;28;20236;-63
2023/07/01 06:11:35;;;;;;;8.00;7.40;;;23.00;98.60;;;;;;6276224;28;20237;-63
2023/07/01 06:14:38;;;;;;;7.70;7.10;;;23.00;98.60;;;;;;6275270;28;20238;-63
2023/07/01 06:17:42;;;;;;;8.00;7.40;;;22.90;98.50;;;;;;6275389;28;20231;-63
2023/07/01 06:20:46;;;;;;;8.20;7.60;;;23.10;98.60;;;;;;6274917;28;20664;-63
2023/07/01 06:23:50;;;;;;;7.70;7.10;;;23.30;98.30;;;;;;6275577;28;20223;-63
2023/07/01 06:26:53;;;;;;;8.53;7.77;;;23.30;98.00;;;;;;6275292;28;20223;-63
2023/07/01 06:29:56;;;;;;;7.70;7.10;;;23.50;97.70;;;;;;6275126;28;20227;-63
2023/07/01 06:32:59;;;;;;;8.10;7.40;;;23.70;97.40;;;;;;6274913;28;20259;-63
2023/07/01 06:36:04;;;;;;;8.70;7.90;;;23.90;96.90;;;;;;6274140;28;20572;-63
2023/07/01 06:39:08;;;;;;;7.97;7.13;;;24.10;96.80;;;;;;6274192;28;20230;-64
2023/07/01 06:42:12;;;;;;;6.83;6.23;;;24.20;96.30;;;;;;6273838;28;20534;-63
2023/07/01 06:45:16;;;;;;;5.53;5.20;;;24.40;96.50;;;;;;6274294;28;20231;-63
2023/07/01 06:48:19;;;;;;;5.73;5.23;;;24.60;96.30;;;;;;6271564;28;20681;-63
2023/07/01 06:51:23;;;;;;;5.70;5.20;;;24.80;96.10;;;;;;6271948;28;20222;-63
2023/07/01 06:54:26;;;;;;;6.73;6.20;;;25.00;96.00;;;;;;6272328;28;20573;-64
2023/07/01 06:57:30;;;;;;;7.40;6.80;;;25.00;95.80;;;;;;6274205;28;20230;-63
2023/07/01 07:00:33;;;;;;;8.43;7.77;;;25.10;95.40;;;;;;6274490;28;20572;-64
2023/07/01 07:03:39;;;;;;;8.20;7.50;;;25.20;94.20;;;;;;6273763;28;20298;-63
2023/07/01 07:06:44;;;;;;;7.30;6.70;;;25.20;93.20;;;;;;6273711;28;20667;-64
2023/07/01 07:09:47;;;;;;;8.37;7.67;;;25.30;93.20;;;;;;6274483;28;20227;-64
2023/07/01 07:12:50;;;;;;;8.57;7.87;;;25.30;92.80;;;;;;6274584;28;20233;-64
2023/07/01 07:15:53;;;;;;;8.67;7.97;;;25.40;92.70;;;;;;6273970;28;20308;-63
2023/07/01 07:18:57;;;;;;;8.63;7.93;;;25.60;92.70;;;;;;6273155;28;20231;-63
2023/07/01 07:22:01;;;;;;;8.90;8.30;;;25.60;91.90;;;;;;6274296;28;20576;-63
2023/07/01 07:25:05;;;;;;;9.00;8.30;;;25.70;91.80;;;;;;6271211;28;20235;-64
2023/07/01 07:28:08;;;;;;;8.47;7.73;;;25.90;91.50;;;;;;6277944;28;20236;-64
2023/07/01 07:31:11;;;;;;;9.40;8.70;;;25.90;91.00;;;;;;6279168;28;20576;-63
2023/07/01 07:34:15;;;;;;;8.70;8.00;;;25.80;91.30;;;;;;6277592;28;20655;-63
2023/07/01 07:37:20;;;;;;;10.23;9.33;;;25.70;91.20;;;;;;6278242;28;20223;-64
2023/07/01 07:40:26;;;;;;;8.97;8.23;;;25.70;91.30;;;;;;6277982;28;20708;-63
2023/07/01 07:43:29;;;;;;;9.37;8.63;;;25.90;91.10;;;;;;6277303;28;20233;-63
2023/07/01 07:46:37;;;;;;;8.03;7.43;;;26.00;91.10;;;;;;6278115;28;20292;-64
2023/07/01 07:49:41;;;;;;;8.57;7.97;;;26.30;90.90;;;;;;6277897;28;20226;-63
2023/07/01 07:52:45;;;;;;;8.63;7.93;;;26.50;90.50;;;;;;6277735;28;20844;-63
2023/07/01 07:55:48;;;;;;;10.07;7.70;;;26.70;90.00;;;;;;6275816;28;20566;-64
2023/07/01 07:58:52;;;;;;;8.97;8.27;;;26.80;89.10;;;;;;6278828;28;20245;-64
2023/07/01 08:01:57;;;;;;;9.57;8.77;;;26.70;88.70;;;;;;6278895;28;20227;-64
2023/07/01 08:05:02;;;;;;;9.17;8.37;;;26.70;88.60;;;;;;6278421;28;20226;-64
2023/07/01 08:08:11;;;;;;;9.37;8.40;;;26.80;88.20;;;;;;6278263;28;20227;-63
2023/07/01 08:11:14;;;;;;;9.37;8.57;;;26.90;87.70;;;;;;6278143;28;20226;-63
2023/07/01 08:14:20;;;;;;;9.03;8.20;;;27.10;87.70;;;;;;6269046;28;20506;-63
2023/07/01 08:17:23;;;;;;;10.00;9.13;;;27.40;86.70;;;;;;6278525;28;20219;-63
2023/07/01 08:20:26;;;;;;;9.57;8.60;;;27.80;85.70;;;;;;6278624;28;20218;-63
2023/07/01 08:23:31;;;;;;;10.03;9.23;;;27.80;83.80;;;;;;6278015;28;20213;-64
2023/07/01 08:26:34;;;;;;;9.20;8.50;;;28.10;83.80;;;;;;6277877;28;20544;-66
2023/07/01 08:29:37;;;;;;;10.40;9.60;;;28.40;82.60;;;;;;6278326;28;20223;-66
2023/07/01 08:32:41;;;;;;;9.30;8.43;;;28.40;81.50;;;;;;6277039;28;20237;-65
2023/07/01 08:35:44;;;;;;;9.63;8.83;;;28.30;81.30;;;;;;6253249;28;20243;-67
2023/07/01 08:38:49;;;;;;;9.40;8.70;;;28.40;81.40;;;;;;6251997;28;20223;-67
2023/07/01 08:41:57;;;;;;;9.30;8.70;;;28.50;80.60;;;;;;6252787;28;20223;-65
2023/07/01 08:45:01;;;;;;;8.57;7.77;;;28.50;80.40;;;;;;6253557;28;20239;-65
2023/07/01 08:48:06;;;;;;;9.67;8.77;;;28.70;80.50;;;;;;6251138;28;20231;-66
2023/07/01 08:51:14;;;;;;;9.53;8.63;;;28.80;79.60;;;;;;6252368;28;20220;-65
2023/07/01 08:54:20;;;;;;;9.10;8.40;;;29.00;79.10;;;;;;6252594;28;20234;-66
2023/07/01 08:57:23;;;;;;;8.70;7.97;;;29.00;78.60;;;;;;6249226;28;20250;-67
2023/07/01 09:00:27;;;;;;;9.93;9.00;;;29.00;78.10;;;;;;6251992;28;20234;-66
2023/07/01 09:03:35;;;;;;;9.90;8.93;;;29.10;78.10;;;;;;6251837;28;20223;-66
2023/07/01 09:06:39;;;;;;;10.57;8.60;;;29.20;77.00;;;;;;6251592;28;20219;-66
2023/07/01 09:09:45;;;;;;;9.10;8.30;;;29.30;77.20;;;;;;6248986;28;20572;-66
2023/07/01 09:12:48;;;;;;;9.10;8.30;;;29.40;77.00;;;;;;6245541;28;20251;-66
2023/07/01 09:15:51;;;;;;;9.40;8.63;;;29.70;76.80;;;;;;6238951;28;20220;-66
2023/07/01 09:19:04;;;;;;;9.83;9.03;;;29.90;75.30;;;;;;6238676;28;20539;-66
2023/07/01 09:22:09;;;;;;;9.87;9.17;;;30.00;74.10;;;;;;6244613;28;20228;-66
2023/07/01 09:25:27;;;;;;;10.43;9.43;;;29.90;73.30;;;;;;6227047;28;20240;-66
2023/07/01 09:28:31;;;;;;;10.60;9.80;;;29.60;73.70;;;;;;6226914;28;20236;-65
2023/07/01 09:31:45;;;;;;;9.97;9.07;;;29.40;74.90;;;;;;6241660;28;20571;-67
2023/07/01 09:34:57;;;;;;;9.53;8.87;;;29.10;75.50;;;;;;6269399;28;20254;-66
2023/07/01 09:38:02;;;;;;;10.43;9.63;;;28.90;75.20;;;;;;6276741;28;20278;-66
2023/07/01 09:41:19;;;;;;;9.90;9.20;;;28.50;75.90;;;;;;6276315;28;20237;-67
2023/07/01 09:44:22;;;;;;;10.60;9.70;;;28.20;76.90;;;;;;6275719;28;20605;-64
2023/07/01 09:47:26;;;;;;;11.40;10.50;;;28.00;77.30;;;;;;6275004;28;20238;-66
2023/07/01 09:50:29;;;;;;;11.07;10.10;;;27.60;78.00;;;;;;6275521;28;20288;-63
2023/07/01 09:53:35;;;;;;;12.73;9.27;;;27.30;79.40;;;;;;6275018;28;20207;-62
2023/07/01 09:56:39;;;;;;;10.07;9.37;;;26.90;84.60;;;;;;6274019;28;20233;-62
2023/07/01 09:59:43;;;;;;;11.67;10.57;;;26.90;82.30;;;;;;6274221;28;20233;-63
2023/07/01 10:02:48;;;;;;;11.63;10.60;;;26.70;85.50;;;;;;6275927;28;20364;-63
2023/07/01 10:05:52;;;;;;;10.73;9.77;;;26.80;83.70;;;;;;6276017;28;20227;-62
2023/07/01 10:08:55;;;;;;;9.70;9.00;;;26.60;87.30;;;;;;6275504;28;20237;-62
2023/07/01 10:12:00;;;;;;;11.67;10.57;;;26.50;87.30;;;;;;6275719;28;20227;-64
2023/07/01 10:15:04;;;;;;;9.97;8.97;;;26.40;87.00;;;;;;6275359;28;20223;-63
2023/07/01 10:18:21;;;;;;;10.90;9.97;;;26.30;86.80;;;;;;6275368;28;20241;-63
2023/07/01 10:21:32;;;;;;;11.57;10.53;;;26.40;87.10;;;;;;6271753;28;20284;-64
2023/07/01 10:24:38;;;;;;;10.80;9.90;;;26.30;87.10;;;;;;6250756;28;20239;-63
2023/07/01 10:28:16;;;;;;;9.93;9.13;;;26.20;86.20;;;;;;6250106;28;20231;-63
2023/07/01 10:31:19;;;;;;;11.23;10.33;;;26.10;86.80;;;;;;6250532;28;20242;-63
2023/07/01 10:34:22;;;;;;;11.80;10.80;;;25.90;87.90;;;;;;6250126;28;20607;-63
2023/07/01 10:37:27;;;;;;;10.40;9.60;;;25.80;88.30;;;;;;6249980;28;20567;-63
2023/07/01 10:40:43;;;;;;;10.30;9.50;;;25.70;88.90;;;;;;6250064;28;20563;-63
2023/07/01 10:43:48;;;;;;;10.63;9.73;;;25.60;89.10;;;;;;6250320;28;20696;-61
2023/07/01 10:47:16;;;;;;;11.17;10.30;;;25.50;89.40;;;;;;6250215;28;20672;-63
2023/07/01 10:50:20;;;;;;;11.50;10.43;;;25.40;90.20;;;;;;6250004;28;20332;-63
2023/07/01 10:53:24;;;;;;;11.97;11.03;;;25.40;90.10;;;;;;6251078;28;20215;-63
2023/07/01 10:56:29;;;;;;;12.13;11.13;;;25.40;90.30;;;;;;6249892;28;20210;-63
2023/07/01 10:59:34;;;;;;;12.77;11.60;;;25.40;90.30;;;;;;6250296;28;20281;-63
2023/07/01 11:02:40;;;;;;;11.73;10.60;;;25.20;90.70;;;;;;6249669;28;20374;-63
2023/07/01 11:05:58;;;;;;;11.10;10.20;;;25.20;90.70;;;;;;6250045;28;20644;-63
2023/07/01 11:09:01;;;;;;;11.10;10.20;;;25.00;90.90;;;;;;6249673;28;20520;-62
2023/07/01 11:12:08;;;;;;;12.30;11.20;;;25.00;91.20;;;;;;6249770;28;20237;-63
2023/07/01 11:15:18;;;;;;;12.60;11.50;;;24.90;91.30;;;;;;6263814;28;20285;-62
2023/07/01 11:18:21;;;;;;;11.23;10.30;;;24.80;91.50;;;;;;6275805;28;20231;-62
2023/07/01 11:21:27;;;;;;;11.10;10.10;;;24.60;91.90;;;;;;6271084;28;20350;-62
2023/07/01 11:24:30;;;;;;;11.93;10.80;;;24.70;92.10;;;;;;6250062;28;20366;-62
2023/07/01 11:27:40;;;;;;;11.73;10.70;;;24.80;92.50;;;;;;6240399;28;20236;-62
2023/07/01 11:30:45;;;;;;;13.70;12.30;;;24.60;92.90;;;;;;6249673;28;20302;-62
2023/07/01 11:33:50;;;;;;;12.43;11.23;;;24.50;93.50;;;;;;6249399;28;20385;-62
2023/07/01 11:36:55;;;;;;;12.17;11.10;;;24.50;93.70;;;;;;6249583;28;20236;-62
2023/07/01 11:39:58;;;;;;;12.77;11.57;;;24.50;94.20;;;;;;6249629;28;20663;-63
2023/07/01 11:43:01;;;;;;;12.67;11.47;;;24.50;94.70;;;;;;6249216;28;20232;-62
2023/07/01 11:46:06;;;;;;;12.10;10.90;;;24.50;94.80;;;;;;6249498;28;20227;-61
2023/07/01 11:49:17;;;;;;;12.57;11.43;;;24.60;94.70;;;;;;6249163;28;20293;-61
2023/07/01 11:52:25;;;;;;;11.90;10.80;;;24.60;94.80;;;;;;6249806;28;20243;-62
2023/07/01 11:55:37;;;;;;;12.43;11.23;;;24.70;94.80;;;;;;6249362;28;20694;-62
2023/07/01 11:58:48;;;;;;;12.37;11.27;;;24.80;94.80;;;;;;6251241;28;20235;-61
2023/07/01 12:01:56;;;;;;;12.10;11.03;;;25.00;94.60;;;;;;6255575;28;20238;-63
2023/07/01 12:05:00;;;;;;;13.10;11.90;;;25.20;94.40;;;;;;6249282;28;20235;-63
2023/07/01 12:08:03;;;;;;;12.47;11.23;;;25.40;94.00;;;;;;6249271;28;20703;-62
2023/07/01 12:11:16;;;;;;;13.63;12.20;;;25.50;93.70;;;;;;6249060;28;20652;-62
2023/07/01 12:14:21;;;;;;;13.07;11.87;;;25.80;93.50;;;;;;6259911;28;20570;-62
2023/07/01 12:17:30;;;;;;;12.80;11.70;;;25.90;93.30;;;;;;6278494;28;20219;-63
2023/07/01 12:20:33;;;;;;;12.17;11.17;;;26.00;93.30;;;;;;6278605;28;20199;-63
2023/07/01 12:23:44;;;;;;;12.47;11.47;;;26.20;93.00;;;;;;6256600;28;20241;-63
2023/07/01 12:26:48;;;;;;;12.87;11.77;;;26.50;92.70;;;;;;6252994;28;20605;-63
2023/07/01 12:29:51;;;;;;;13.17;11.90;;;26.40;92.60;;;;;;6248777;28;20220;-62
2023/07/01 12:32:56;;;;;;;12.60;11.50;;;26.10;93.00;;;;;;6252937;28;20219;-63
2023/07/01 12:36:00;;;;;;;13.20;12.03;;;26.20;93.00;;;;;;6253423;28;20277;-62
2023/07/01 12:39:04;;;;;;;12.70;11.60;;;25.80;93.70;;;;;;6252751;28;20552;-61
2023/07/01 12:42:08;;;;;;;11.20;10.20;;;25.80;93.40;;;;;;6252986;28;20242;-63
2023/07/01 12:45:12;;;;;;;12.63;11.37;;;25.90;93.50;;;;;;6252498;28;20690;-64
2023/07/01 12:48:18;;;;;;;11.63;10.57;;;26.10;93.30;;;;;;6270111;28;20550;-63
2023/07/01 12:51:21;;;;;;;12.70;11.50;;;26.30;93.50;;;;;;6277540;28;20223;-63
2023/07/01 12:54:24;;;;;;;10.87;9.77;;;26.70;92.70;;;;;;6277522;28;20226;-62
2023/07/01 12:57:31;;;;;;;12.77;11.67;;;26.70;92.30;;;;;;6277404;28;20259;-62
2023/07/01 13:00:34;;;;;;;12.17;11.07;;;26.50;92.80;;;;;;6277687;28;20693;-63
2023/07/01 13:03:41;;;;;;;13.07;11.77;;;26.50;92.80;;;;;;6277540;28;20231;-63
2023/07/01 13:06:45;;;;;;;12.47;11.47;;;26.50;92.80;;;;;;6276788;28;20237;-62
2023/07/01 13:09:50;;;;;;;11.53;10.53;;;26.50;93.00;;;;;;6276941;28;20230;-63
2023/07/01 13:12:58;;;;;;;13.00;11.67;;;26.50;93.00;;;;;;6277010;28;20569;-62
2023/07/01 13:16:02;;;;;;;12.60;11.40;;;26.50;92.90;;;;;;6277025;28;20302;-61
2023/07/01 13:19:08;;;;;;;14.40;13.20;;;26.40;93.00;;;;;;6276030;28;20665;-63
2023/07/01 13:22:14;;;;;;;12.30;11.10;;;26.30;93.30;;;;;;6266625;28;20238;-61
2023/07/01 13:25:19;;;;;;;12.83;11.53;;;26.20;93.40;;;;;;6251211;28;20286;-61
2023/07/01 13:28:22;;;;;;;13.93;12.63;;;26.10;93.60;;;;;;6251661;28;20231;-62
2023/07/01 13:31:26;;;;;;;13.03;11.97;;;26.00;93.80;;;;;;6251611;28;20239;-62
2023/07/01 13:34:39;;;;;;;11.43;10.47;;;25.80;94.30;;;;;;6251334;28;20683;-63
2023/07/01 13:37:42;;;;;;;13.60;12.37;;;25.80;94.60;;;;;;6251669;28;20546;-62
2023/07/01 13:40:49;;;;;;;12.57;11.37;;;25.80;94.80;;;;;;6251378;28;20223;-62
2023/07/01 13:44:01;;;;;;;11.57;10.40;;;25.80;94.90;;;;;;6251594;28;20306;-63
2023/07/01 13:47:08;;;;;;;10.80;9.80;;;25.80;94.80;;;;;;6251024;28;20232;-62
2023/07/01 13:50:18;;;;;;;11.30;10.40;;;25.80;94.50;;;;;;6259140;28;20298;-63
2023/07/01 13:53:22;;;;;;;10.03;9.03;;;25.90;94.30;;;;;;6275366;28;20353;-64
2023/07/01 13:56:26;;;;;;;10.30;9.33;;;26.00;94.10;;;;;;6279315;28;20203;-62
2023/07/01 13:59:30;;;;;;;9.57;8.73;;;26.00;94.00;;;;;;6274751;28;20240;-62
2023/07/01 14:02:38;;;;;;;12.10;11.00;;;26.10;94.20;;;;;;6275708;28;20614;-65
2023/07/01 14:05:45;;;;;;;12.13;11.07;;;26.00;94.40;;;;;;6275558;28;20242;-64
2023/07/01 14:08:49;;;;;;;14.87;13.57;;;25.80;95.00;;;;;;6275189;28;20370;-63
2023/07/01 14:11:53;;;;;;;14.50;13.10;;;25.60;95.40;;;;;;6274686;28;20651;-62
2023/07/01 14:14:57;;;;;;;13.73;12.33;;;25.40;95.80;;;;;;6274940;28;20246;-63
2023/07/01 14:18:00;;;;;;;14.53;12.67;;;25.20;96.40;;;;;;6275345;28;20662;-64
2023/07/01 14:21:06;;;;;;;15.13;13.80;;;25.30;96.50;;;;;;6274273;28;20227;-65
2023/07/01 14:24:18;;;;;;;14.83;13.40;;;25.00;97.00;;;;;;6250282;28;20220;-67
2023/07/01 14:27:28;;;;;;;14.30;13.00;;;25.00;97.20;;;;;;6250165;28;20310;-62
2023/07/01 14:30:56;;;;;;;13.83;12.43;;;25.00;97.20;;;;;;6250748;28;20578;-70
2023/07/01 14:34:02;;;;;;;13.97;12.67;;;24.80;96.90;;;;;;6245527;28;20235;-67
2023/07/01 14:37:12;;;;;;;11.90;10.90;;;24.80;96.80;;;;;;6273281;28;20224;-66
2023/07/01 14:40:16;;;;;;;12.60;11.40;;;24.80;96.60;;;;;;6274605;28;20237;-64
2023/07/01 14:43:19;;;;;;;11.73;10.73;;;24.80;96.10;;;;;;6274640;28;20258;-68
2023/07/01 14:46:26;;;;;;;10.90;10.00;;;24.70;96.10;;;;;;6274365;28;20291;-65
2023/07/01 14:49:30;;;;;;;10.20;9.30;;;24.70;96.00;;;;;;6275198;28;20246;-67
2023/07/01 14:52:35;;;;;;;11.20;10.10;;;24.70;95.60;;;;;;6275315;28;20231;-66
2023/07/01 14:55:38;;;;;;;9.93;8.93;;;24.70;95.80;;;;;;6274478;28;20222;-65
2023/07/01 14:58:43;;;;;;;11.33;10.17;;;24.70;96.10;;;;;;6274990;28;20679;-66
2023/07/01 15:01:47;;;;;;;9.80;8.50;;;24.70;96.70;;;;;;6274440;28;20219;-62
2023/07/01 15:04:51;;;;;;;8.13;7.43;;;24.80;96.20;;;;;;6273930;28;20211;-64
2023/07/01 15:07:56;;;;;;;9.77;8.83;;;24.90;95.20;;;;;;6274260;28;20309;-62
2023/07/01 15:11:00;;;;;;;7.40;6.70;;;24.90;94.80;;;;;;6274254;28;20675;-62
2023/07/01 15:14:03;;;;;;;6.53;5.93;;;24.90;94.60;;;;;;6274290;28;20241;-62
2023/07/01 15:17:07;;;;;;;6.20;5.60;;;24.80;94.30;;;;;;6274166;28;20380;-62
2023/07/01 15:20:11;;;;;;;5.63;5.23;;;24.80;94.00;;;;;;6274526;28;20223;-62
2023/07/01 15:23:15;;;;;;;6.27;5.63;;;24.80;94.00;;;;;;6255720;28;20240;-62
2023/07/01 15:26:18;;;;;;;5.23;4.73;;;24.70;93.70;;;;;;6249612;28;20347;-62
2023/07/01 15:29:22;;;;;;;5.77;5.23;;;24.60;94.00;;;;;;6249676;28;20311;-62
2023/07/01 15:32:25;;;;;;;5.50;5.00;;;24.60;93.80;;;;;;6249362;28;20269;-62
2023/07/01 15:35:28;;;;;;;5.43;4.93;;;24.60;93.80;;;;;;6249189;28;20613;-62
2023/07/01 15:38:33;;;;;;;5.33;4.83;;;24.70;93.90;;;;;;6249707;28;20220;-62
2023/07/01 15:41:37;;;;;;;4.60;4.20;;;24.70;94.20;;;;;;6254694;28;20402;-70
2023/07/01 15:44:50;;;;;;;21.40;11.90;;;24.70;94.40;;;;;;6274492;28;20238;-64
2023/07/01 15:47:53;;;;;;;8.43;7.30;;;24.80;94.90;;;;;;6275658;28;20570;-66
2023/07/01 15:50:57;;;;;;;10.53;6.50;;;24.70;95.30;;;;;;6279150;28;20230;-65
2023/07/01 15:54:02;;;;;;;8.77;5.67;;;24.80;95.40;;;;;;6278636;28;20225;-65
2023/07/01 15:57:06;;;;;;;6.13;5.57;;;24.80;95.50;;;;;;6279062;28;20223;-66